Time;durP1;ratioP1;P1;durP2;ratioP2;P2;SDS_P1;SDS_P2;PMS_P1;PMS_P2;Temp;Humidity;BMP_temperature;BMP_pressure;BME280_temperature;BME280_humidity;BME280_pressure;Samples;Min_cycle;Max_cycle;Signal;HPM_P1;HPM_P2
2022/06/04 00:01:41;;;;;;;9.77;8.83;;;24.70;60.30;;;;;;5054499;28;20475;-94
2022/06/04 00:04:08;;;;;;;8.73;7.93;;;24.70;60.20;;;;;;5044553;28;20448;-93
2022/06/04 00:06:36;;;;;;;8.40;7.37;;;24.70;60.80;;;;;;5064226;28;20549;-93
2022/06/04 00:09:05;;;;;;;8.70;8.00;;;24.70;60.50;;;;;;5037835;28;20452;-93
2022/06/04 00:17:03;;;;;;;8.80;7.90;;;24.60;59.80;;;;;;5035125;28;20836;-94
2022/06/04 00:19:30;;;;;;;8.80;7.97;;;24.50;60.60;;;;;;5055462;28;20447;-93
2022/06/04 00:21:58;;;;;;;7.87;7.17;;;24.50;60.50;;;;;;5057272;28;20459;-93
2022/06/04 00:24:25;;;;;;;9.23;7.90;;;24.50;60.20;;;;;;5052235;28;20435;-93
2022/06/04 00:26:52;;;;;;;9.17;8.37;;;24.50;61.40;;;;;;5043352;28;20446;-93
2022/06/04 00:29:21;;;;;;;8.70;7.80;;;24.60;60.90;;;;;;5072401;28;20451;-93
2022/06/04 00:31:48;;;;;;;8.50;7.70;;;24.60;61.60;;;;;;5060203;28;20459;-92
2022/06/04 00:34:16;;;;;;;7.97;7.17;;;24.60;60.60;;;;;;5070940;28;20465;-93
2022/06/04 00:36:43;;;;;;;10.13;8.30;;;24.60;60.10;;;;;;5054616;28;20490;-93
2022/06/04 00:39:10;;;;;;;8.47;7.60;;;24.60;60.40;;;;;;5052557;28;20451;-94
2022/06/04 00:41:45;;;;;;;9.13;8.30;;;24.50;60.50;;;;;;5058175;28;20479;-93
2022/06/04 00:44:55;;;;;;;7.73;7.03;;;24.50;60.30;;;;;;5055219;28;20450;-94
2022/06/04 00:47:27;;;;;;;8.90;7.93;;;24.50;60.80;;;;;;5057678;28;20742;-93
2022/06/04 00:49:55;;;;;;;10.17;8.50;;;24.50;60.80;;;;;;5056326;28;20443;-93
2022/06/04 00:52:23;;;;;;;10.03;9.03;;;24.40;61.10;;;;;;5070933;28;20444;-93
2022/06/04 00:54:53;;;;;;;9.17;8.33;;;24.40;61.10;;;;;;5036513;28;20860;-93
2022/06/04 00:57:43;;;;;;;10.50;8.37;;;24.40;61.30;;;;;;5052998;28;20470;-93
2022/06/04 01:00:15;;;;;;;12.60;8.80;;;24.40;60.50;;;;;;5088244;28;20476;-93
2022/06/04 01:03:00;;;;;;;8.60;7.70;;;24.30;60.00;;;;;;5038771;28;20452;-93
2022/06/04 01:05:36;;;;;;;8.50;7.70;;;24.30;60.80;;;;;;5070579;28;20443;-93
2022/06/04 01:08:33;;;;;;;9.53;8.20;;;24.30;61.10;;;;;;5076736;28;20459;-92
2022/06/04 01:11:09;;;;;;;9.93;8.87;;;24.30;61.00;;;;;;5049132;28;20463;-93
2022/06/04 01:13:53;;;;;;;9.00;8.10;;;24.30;61.00;;;;;;5068833;28;20535;-94
2022/06/04 01:16:28;;;;;;;8.40;7.60;;;24.30;60.60;;;;;;5055046;28;20746;-93
2022/06/04 01:19:02;;;;;;;8.00;7.20;;;24.30;60.10;;;;;;5071651;28;20527;-93
2022/06/04 01:21:38;;;;;;;9.17;8.33;;;24.30;60.50;;;;;;5070051;28;20491;-93
2022/06/04 01:24:36;;;;;;;8.80;8.00;;;24.20;59.60;;;;;;5035008;28;20529;-93
2022/06/04 01:27:19;;;;;;;9.10;8.30;;;24.10;60.00;;;;;;5051201;28;20522;-93
2022/06/04 01:29:52;;;;;;;10.30;7.50;;;24.10;59.80;;;;;;5033889;28;20460;-93
2022/06/04 01:32:25;;;;;;;8.30;7.50;;;24.10;59.80;;;;;;5073131;28;20447;-93
2022/06/04 01:35:00;;;;;;;9.80;8.80;;;24.10;59.60;;;;;;5072933;28;20462;-94
2022/06/04 01:37:32;;;;;;;9.47;7.97;;;23.90;60.20;;;;;;5038451;28;20475;-93
2022/06/04 01:42:49;;;;;;;8.70;7.80;;;23.50;61.00;;;;;;5054141;28;20458;-93
2022/06/04 01:45:22;;;;;;;8.93;7.83;;;23.40;61.50;;;;;;5069998;28;20456;-93
2022/06/04 01:47:52;;;;;;;9.00;8.10;;;23.50;61.00;;;;;;5037346;28;20527;-93
2022/06/04 01:50:24;;;;;;;8.57;7.63;;;23.50;60.90;;;;;;5047325;28;20459;-94
2022/06/04 01:52:52;;;;;;;8.47;7.57;;;23.60;60.60;;;;;;5059388;28;20435;-92
2022/06/04 01:55:23;;;;;;;8.30;7.50;;;23.70;60.40;;;;;;5092077;28;20448;-92
2022/06/04 01:57:55;;;;;;;9.37;7.63;;;23.70;59.60;;;;;;5080033;28;20533;-93
2022/06/04 02:00:26;;;;;;;11.10;7.83;;;23.60;59.50;;;;;;5059234;28;20496;-93
2022/06/04 02:02:56;;;;;;;8.10;7.40;;;23.60;59.50;;;;;;5056409;28;20528;-94
2022/06/04 02:05:28;;;;;;;11.90;8.60;;;23.50;59.30;;;;;;5056972;28;20448;-93
2022/06/04 02:07:57;;;;;;;8.77;7.87;;;23.50;60.20;;;;;;5053720;28;20444;-93
2022/06/04 02:10:29;;;;;;;8.30;7.50;;;23.40;59.80;;;;;;5056326;28;20558;-92
2022/06/04 02:13:00;;;;;;;11.97;8.10;;;23.40;59.90;;;;;;5041935;28;20505;-93
2022/06/04 02:15:34;;;;;;;10.20;7.57;;;23.40;59.80;;;;;;5059222;28;20483;-93
2022/06/04 02:18:03;;;;;;;9.40;7.80;;;23.50;60.00;;;;;;5056659;28;20450;-93
2022/06/04 02:20:31;;;;;;;8.47;7.57;;;23.40;60.00;;;;;;5091986;28;20472;-94
2022/06/04 02:22:59;;;;;;;8.23;7.43;;;23.50;59.90;;;;;;5089287;28;20451;-92
2022/06/04 02:25:28;;;;;;;9.40;8.20;;;23.50;59.80;;;;;;5057081;28;20530;-93
2022/06/04 02:27:58;;;;;;;9.30;7.97;;;23.50;59.70;;;;;;5078220;28;20444;-93
2022/06/04 02:30:32;;;;;;;8.00;7.20;;;23.50;59.40;;;;;;5065221;28;20472;-94
2022/06/04 02:33:09;;;;;;;12.83;8.30;;;23.00;60.60;;;;;;5054131;28;20445;-92
2022/06/04 02:35:42;;;;;;;9.00;8.10;;;22.60;61.70;;;;;;5073461;28;20450;-93
2022/06/04 02:38:20;;;;;;;9.13;8.07;;;22.60;61.60;;;;;;5072162;28;20436;-93
2022/06/04 02:40:56;;;;;;;8.53;7.73;;;22.70;61.40;;;;;;5056180;28;20464;-93
2022/06/04 02:43:32;;;;;;;9.40;8.40;;;22.70;61.60;;;;;;5042786;28;20527;-93
2022/06/04 02:46:07;;;;;;;8.03;7.30;;;22.80;61.10;;;;;;5057824;28;20451;-94
2022/06/04 02:48:39;;;;;;;8.83;7.47;;;22.90;61.30;;;;;;5055199;28;20447;-93
2022/06/04 02:51:12;;;;;;;8.03;7.23;;;22.90;59.60;;;;;;5091364;28;20502;-93
2022/06/04 02:53:41;;;;;;;10.60;7.33;;;22.90;59.30;;;;;;5055243;28;20948;-93
2022/06/04 02:56:12;;;;;;;8.27;7.27;;;23.00;59.60;;;;;;5073658;28;20468;-93
2022/06/04 02:58:43;;;;;;;8.83;8.00;;;23.00;59.70;;;;;;5057818;28;20447;-92
2022/06/04 03:01:11;;;;;;;8.27;7.47;;;23.00;59.40;;;;;;5061291;28;20983;-92
2022/06/04 03:03:40;;;;;;;8.90;8.00;;;23.00;59.30;;;;;;5058427;28;21052;-93
2022/06/04 03:06:20;;;;;;;9.43;8.50;;;23.00;59.50;;;;;;5052632;28;20447;-93
2022/06/04 03:08:47;;;;;;;10.33;8.60;;;23.00;59.40;;;;;;5061982;28;20444;-94
2022/06/04 03:11:15;;;;;;;9.30;8.40;;;23.00;59.10;;;;;;5090567;28;20524;-93
2022/06/04 03:13:45;;;;;;;8.17;7.33;;;23.00;59.00;;;;;;5045027;28;20951;-93
2022/06/04 03:16:12;;;;;;;9.07;7.80;;;23.00;59.00;;;;;;5042272;28;20461;-93
2022/06/04 03:18:40;;;;;;;10.97;8.93;;;23.00;59.20;;;;;;5049526;28;20510;-91
2022/06/04 03:21:07;;;;;;;11.70;9.70;;;23.00;59.40;;;;;;5056333;28;21015;-94
2022/06/04 03:23:34;;;;;;;21.73;10.57;;;23.00;59.90;;;;;;5043435;28;20463;-93
2022/06/04 03:26:02;;;;;;;14.13;10.07;;;22.90;60.20;;;;;;5035758;28;20441;-92
2022/06/04 03:28:29;;;;;;;16.40;10.17;;;22.90;60.60;;;;;;5045483;28;20791;-92
2022/06/04 03:30:58;;;;;;;21.63;10.87;;;22.80;60.80;;;;;;5050800;28;20572;-93
2022/06/04 03:33:25;;;;;;;36.70;11.10;;;22.80;61.20;;;;;;5069759;28;20817;-93
2022/06/04 03:35:52;;;;;;;47.53;11.23;;;22.80;61.50;;;;;;5035641;28;20440;-93
2022/06/04 03:38:20;;;;;;;41.20;11.40;;;22.80;62.30;;;;;;5038207;28;20460;-92
2022/06/04 03:40:47;;;;;;;29.90;10.73;;;22.10;63.80;;;;;;5056081;28;20482;-92
2022/06/04 03:43:14;;;;;;;38.20;12.00;;;21.80;64.90;;;;;;5055996;28;20464;-93
2022/06/04 03:45:41;;;;;;;16.53;10.30;;;21.50;65.80;;;;;;5040761;28;20444;-92
2022/06/04 03:48:10;;;;;;;23.40;10.67;;;21.70;65.40;;;;;;5053324;28;20440;-92
2022/06/04 03:50:37;;;;;;;12.43;10.20;;;21.90;64.80;;;;;;5038837;28;20464;-92
2022/06/04 03:53:04;;;;;;;13.37;10.70;;;22.20;64.50;;;;;;5041273;28;20815;-93
2022/06/04 03:55:31;;;;;;;15.73;11.63;;;22.30;64.20;;;;;;5071400;28;20460;-93
2022/06/04 03:57:58;;;;;;;12.50;11.20;;;22.40;63.90;;;;;;5056895;28;20468;-92
2022/06/04 04:00:31;;;;;;;18.87;10.90;;;22.60;63.80;;;;;;5037802;28;20999;-93
2022/06/04 04:03:01;;;;;;;15.30;11.37;;;22.70;63.50;;;;;;5054028;28;20531;-93
2022/06/04 04:05:32;;;;;;;15.00;11.20;;;22.80;63.40;;;;;;5052208;28;20557;-93
2022/06/04 04:08:01;;;;;;;18.47;13.10;;;22.80;63.30;;;;;;5052653;28;20527;-94
2022/06/04 04:10:29;;;;;;;19.27;12.47;;;22.80;63.10;;;;;;5037032;28;20478;-93
2022/06/04 04:12:57;;;;;;;15.00;10.83;;;22.80;63.20;;;;;;5036830;28;20453;-93
2022/06/04 04:15:25;;;;;;;13.47;11.57;;;22.70;63.30;;;;;;5056943;28;20436;-93
2022/06/04 04:17:52;;;;;;;16.87;11.80;;;22.80;63.50;;;;;;5075340;28;20510;-92
2022/06/04 04:20:21;;;;;;;17.80;11.53;;;22.90;63.10;;;;;;5040242;28;20467;-94
2022/06/04 04:22:50;;;;;;;19.57;12.70;;;22.90;62.70;;;;;;5048806;28;20521;-93
2022/06/04 04:25:20;;;;;;;36.80;12.83;;;23.00;62.80;;;;;;5069719;28;21128;-93
2022/06/04 04:27:48;;;;;;;23.33;11.83;;;22.90;62.60;;;;;;5042923;28;20532;-93
2022/06/04 04:30:17;;;;;;;14.10;11.40;;;22.90;63.00;;;;;;5080324;28;21052;-93
2022/06/04 04:32:44;;;;;;;18.03;10.77;;;23.00;63.10;;;;;;5050277;28;20443;-94
2022/06/04 04:35:16;;;;;;;17.03;11.07;;;22.90;62.90;;;;;;5042761;28;20524;-93
2022/06/04 04:37:43;;;;;;;16.10;12.57;;;22.80;63.20;;;;;;5077604;28;20484;-93
2022/06/04 04:40:14;;;;;;;17.00;13.17;;;22.70;63.90;;;;;;5053924;28;20458;-93
2022/06/04 04:42:41;;;;;;;16.53;12.40;;;22.80;64.00;;;;;;5058851;28;20484;-94
2022/06/04 04:45:10;;;;;;;17.53;12.37;;;22.90;63.80;;;;;;5054317;28;20783;-94
2022/06/04 04:47:38;;;;;;;20.77;11.97;;;23.00;63.60;;;;;;5054748;28;20455;-93
2022/06/04 04:50:09;;;;;;;15.70;13.10;;;23.00;63.40;;;;;;5056822;28;20447;-93
2022/06/04 04:52:37;;;;;;;15.83;12.50;;;23.10;63.20;;;;;;5056105;28;20790;-95
2022/06/04 04:55:05;;;;;;;15.70;12.73;;;23.20;63.10;;;;;;5041447;28;20661;-93
2022/06/04 04:57:34;;;;;;;15.03;11.23;;;23.20;63.00;;;;;;5053042;28;20452;-93
2022/06/04 05:00:01;;;;;;;16.37;11.70;;;23.20;62.80;;;;;;5058990;28;20467;-92
2022/06/04 05:02:28;;;;;;;15.80;11.97;;;23.20;63.00;;;;;;5054220;28;20447;-93
2022/06/04 05:04:55;;;;;;;14.70;10.40;;;23.20;62.70;;;;;;5041087;28;20477;-92
2022/06/04 05:07:22;;;;;;;16.53;12.73;;;23.10;63.20;;;;;;5049815;28;20439;-93
2022/06/04 05:09:50;;;;;;;14.50;11.10;;;23.20;63.40;;;;;;5054927;28;20464;-94
2022/06/04 05:12:17;;;;;;;13.57;10.83;;;23.20;63.50;;;;;;5054875;28;20971;-93
2022/06/04 05:14:45;;;;;;;17.47;12.03;;;23.20;63.10;;;;;;5089718;28;21018;-93
2022/06/04 05:17:13;;;;;;;14.33;11.67;;;23.30;62.80;;;;;;5039859;28;20539;-94
2022/06/04 05:19:40;;;;;;;11.80;10.60;;;23.30;62.70;;;;;;5056246;28;20837;-94
2022/06/04 05:22:07;;;;;;;12.17;10.80;;;23.40;62.70;;;;;;5044868;28;21029;-93
2022/06/04 05:24:36;;;;;;;14.00;10.43;;;23.40;62.90;;;;;;5032730;28;20531;-93
2022/06/04 05:27:04;;;;;;;13.40;11.60;;;23.50;63.00;;;;;;5060424;28;20497;-93
2022/06/04 05:29:34;;;;;;;12.93;11.13;;;23.50;62.80;;;;;;5040604;28;20462;-92
2022/06/04 05:32:03;;;;;;;15.17;11.33;;;23.50;62.90;;;;;;5059042;28;20978;-93
2022/06/04 05:34:31;;;;;;;11.67;10.57;;;23.60;63.00;;;;;;5058470;28;20489;-92
2022/06/04 05:36:59;;;;;;;14.13;11.63;;;23.70;62.80;;;;;;5095129;28;20958;-93
2022/06/04 05:39:26;;;;;;;13.40;11.43;;;23.60;62.30;;;;;;5066412;28;20497;-95
2022/06/04 05:41:53;;;;;;;23.53;11.53;;;23.70;62.10;;;;;;5040931;28;20467;-93
2022/06/04 05:44:21;;;;;;;11.73;10.17;;;23.60;62.20;;;;;;5054423;28;20439;-94
2022/06/04 05:46:47;;;;;;;12.90;10.83;;;23.60;62.30;;;;;;5051852;28;20472;-94
2022/06/04 05:49:16;;;;;;;11.30;9.87;;;23.80;62.50;;;;;;5057332;28;20455;-96
2022/06/04 05:51:45;;;;;;;11.60;9.50;;;23.80;62.10;;;;;;5054041;28;20984;-94
2022/06/04 05:54:12;;;;;;;13.17;9.93;;;23.90;62.20;;;;;;5055845;28;20448;-94
2022/06/04 05:56:42;;;;;;;12.13;10.03;;;24.00;61.80;;;;;;5037226;28;20450;-93
2022/06/04 05:59:11;;;;;;;12.50;9.53;;;24.00;61.40;;;;;;5059676;28;20860;-94
2022/06/04 06:01:40;;;;;;;10.97;9.20;;;23.70;61.10;;;;;;5054618;28;20499;-94
2022/06/04 06:04:08;;;;;;;11.73;10.53;;;23.70;61.50;;;;;;5069299;28;20447;-95
2022/06/04 06:06:40;;;;;;;10.17;9.20;;;23.70;61.90;;;;;;5038529;28;20445;-95
2022/06/04 06:09:09;;;;;;;11.63;10.50;;;23.70;61.60;;;;;;5054107;28;20448;-94
2022/06/04 06:11:37;;;;;;;13.03;10.73;;;23.80;62.40;;;;;;5058399;28;20870;-94
2022/06/04 06:14:07;;;;;;;13.63;11.97;;;23.60;63.00;;;;;;5045842;28;20436;-95
2022/06/04 06:16:36;;;;;;;11.97;10.77;;;23.70;63.10;;;;;;5073344;28;20459;-96
2022/06/04 06:19:03;;;;;;;14.70;11.50;;;23.80;62.60;;;;;;5056485;28;20937;-94
2022/06/04 06:26:11;;;;;;;13.00;11.67;;;24.00;62.80;;;;;;5093964;28;20439;-94
2022/06/04 06:28:42;;;;;;;14.10;11.90;;;24.00;62.50;;;;;;5061733;28;20467;-95
2022/06/04 06:31:11;;;;;;;14.23;12.77;;;24.00;62.20;;;;;;5035923;28;20479;-95
2022/06/04 06:33:39;;;;;;;17.57;13.83;;;24.00;63.40;;;;;;5031487;28;20542;-95
2022/06/04 06:36:10;;;;;;;16.53;12.73;;;24.00;62.60;;;;;;5067484;28;20444;-95
2022/06/04 06:38:37;;;;;;;18.97;12.23;;;24.10;62.70;;;;;;5057336;28;20471;-95
2022/06/04 06:41:07;;;;;;;14.23;11.53;;;24.10;62.50;;;;;;5036551;28;20475;-94
2022/06/04 06:43:36;;;;;;;13.60;11.60;;;24.20;62.20;;;;;;5058507;28;20444;-93
2022/06/04 06:59:24;;;;;;;11.63;10.43;;;24.30;62.00;;;;;;5044203;28;20489;-95
2022/06/04 07:05:37;;;;;;;8.80;7.67;;;24.50;61.30;;;;;;5002271;28;20430;-94
2022/06/04 07:08:17;;;;;;;10.80;9.10;;;24.60;60.80;;;;;;5051564;28;21014;-92
2022/06/04 07:13:50;;;;;;;9.03;7.70;;;24.70;60.00;;;;;;5085001;28;20451;-89
2022/06/04 07:16:19;;;;;;;10.60;8.90;;;24.70;59.70;;;;;;5052165;28;21137;-88
2022/06/04 07:18:45;;;;;;;9.17;8.27;;;24.50;59.70;;;;;;5071207;28;20505;-89
2022/06/04 07:21:13;;;;;;;9.97;9.00;;;24.50;60.30;;;;;;5081378;28;20471;-88
2022/06/04 07:23:40;;;;;;;10.17;9.07;;;24.60;60.10;;;;;;5066768;28;20538;-89
2022/06/04 07:26:08;;;;;;;10.80;9.10;;;24.90;60.10;;;;;;5047109;28;20538;-88
2022/06/04 07:28:37;;;;;;;10.57;9.40;;;25.00;60.90;;;;;;5085033;28;20456;-89
2022/06/04 07:31:05;;;;;;;10.37;9.30;;;25.00;59.00;;;;;;5047077;28;21335;-88
2022/06/04 07:33:34;;;;;;;10.47;9.07;;;25.10;59.50;;;;;;5050025;28;20515;-88
2022/06/04 07:36:01;;;;;;;9.90;8.87;;;25.20;59.30;;;;;;5065258;28;20436;-89
2022/06/04 07:38:29;;;;;;;9.00;8.23;;;25.10;59.30;;;;;;5084464;28;20471;-89
2022/06/04 07:40:56;;;;;;;11.17;8.83;;;25.20;59.70;;;;;;5067489;28;20502;-90
2022/06/04 07:43:23;;;;;;;11.33;8.03;;;25.10;59.60;;;;;;5037983;28;20812;-89
2022/06/04 07:45:50;;;;;;;9.60;8.60;;;25.00;59.80;;;;;;5055815;28;20471;-88
2022/06/04 07:48:16;;;;;;;8.37;7.57;;;25.00;60.40;;;;;;5063801;28;20451;-90
2022/06/04 07:50:45;;;;;;;7.90;7.20;;;25.10;59.20;;;;;;5047837;28;20475;-89
2022/06/04 07:53:12;;;;;;;10.20;8.90;;;25.30;59.30;;;;;;5046536;28;20982;-89
2022/06/04 07:55:40;;;;;;;8.67;7.77;;;25.60;59.40;;;;;;5065981;28;20532;-89
2022/06/04 07:58:08;;;;;;;8.70;7.80;;;25.80;58.20;;;;;;5083892;28;20479;-89
2022/06/04 08:00:38;;;;;;;7.67;6.87;;;25.70;57.90;;;;;;5051255;28;21104;-90
2022/06/04 08:03:06;;;;;;;7.87;7.07;;;25.70;58.40;;;;;;5065636;28;20439;-89
2022/06/04 08:05:33;;;;;;;8.30;7.47;;;25.70;58.60;;;;;;5039218;28;20463;-89
2022/06/04 08:08:02;;;;;;;8.03;7.23;;;25.50;59.00;;;;;;5065131;28;20470;-85
2022/06/04 08:10:29;;;;;;;8.47;7.67;;;25.10;59.80;;;;;;5064157;28;20483;-88
2022/06/04 08:12:56;;;;;;;8.90;7.47;;;24.70;60.20;;;;;;5081319;28;20974;-88
2022/06/04 08:15:23;;;;;;;8.33;7.63;;;24.80;60.60;;;;;;5050642;28;20554;-88
2022/06/04 08:17:50;;;;;;;9.00;7.60;;;25.00;60.20;;;;;;5050001;28;20521;-89
2022/06/04 08:20:18;;;;;;;9.20;8.30;;;25.30;59.40;;;;;;5050226;28;20471;-88
2022/06/04 08:22:45;;;;;;;8.53;7.73;;;25.30;58.70;;;;;;5034119;28;20471;-86
2022/06/04 08:25:14;;;;;;;10.10;8.53;;;25.20;58.50;;;;;;5079677;28;20513;-85
2022/06/04 08:27:41;;;;;;;10.20;9.20;;;24.80;59.60;;;;;;5046120;28;20460;-87
2022/06/04 08:30:09;;;;;;;9.63;8.70;;;24.90;60.60;;;;;;5081673;28;20448;-85
2022/06/04 08:32:36;;;;;;;8.40;7.60;;;25.10;60.20;;;;;;5063252;28;20448;-85
2022/06/04 08:35:03;;;;;;;7.37;6.77;;;25.20;59.00;;;;;;5081897;28;20452;-85
2022/06/04 08:37:30;;;;;;;8.00;7.20;;;25.40;59.40;;;;;;5063479;28;20456;-85
2022/06/04 08:39:59;;;;;;;8.57;7.87;;;25.50;58.10;;;;;;5081804;28;20453;-83
2022/06/04 08:42:55;;;;;;;9.67;8.77;;;25.60;58.60;;;;;;5083622;28;20892;-86
2022/06/04 08:45:22;;;;;;;9.40;8.50;;;25.80;58.40;;;;;;5080346;28;20455;-85
2022/06/04 08:47:52;;;;;;;9.23;8.30;;;25.80;58.00;;;;;;5083343;28;20450;-86
2022/06/04 08:50:21;;;;;;;8.30;7.60;;;25.80;58.00;;;;;;5080533;28;20467;-85
2022/06/04 08:52:52;;;;;;;8.93;8.03;;;25.80;57.10;;;;;;5063892;28;20524;-85
2022/06/04 08:58:36;;;;;;;8.50;7.40;;;25.90;57.40;;;;;;5066858;28;20555;-82
2022/06/04 09:01:07;;;;;;;8.43;7.57;;;26.00;57.50;;;;;;5065700;28;20464;-84
2022/06/04 09:03:42;;;;;;;8.60;7.80;;;26.10;57.50;;;;;;5086565;28;20548;-85
2022/06/04 09:06:19;;;;;;;8.87;7.97;;;26.30;57.20;;;;;;5083498;28;20446;-85
2022/06/04 09:08:55;;;;;;;8.93;7.57;;;26.20;57.40;;;;;;5085606;28;20439;-85
2022/06/04 09:11:26;;;;;;;9.83;8.40;;;26.30;56.90;;;;;;5067271;28;20507;-84
2022/06/04 09:14:16;;;;;;;8.87;8.00;;;26.40;56.50;;;;;;5074994;28;20447;-85
2022/06/04 09:16:48;;;;;;;9.33;8.53;;;26.40;56.10;;;;;;5067647;28;20972;-86
2022/06/04 09:19:20;;;;;;;8.00;7.20;;;26.50;56.50;;;;;;5085015;28;20476;-85
2022/06/04 09:21:49;;;;;;;7.53;6.93;;;26.50;56.40;;;;;;5084898;28;20551;-85
2022/06/04 09:24:16;;;;;;;10.50;8.90;;;26.50;56.20;;;;;;5066500;28;20504;-85
2022/06/04 09:26:48;;;;;;;8.70;7.90;;;26.50;56.20;;;;;;5066756;28;20456;-83
2022/06/04 09:29:29;;;;;;;8.50;7.70;;;26.50;56.10;;;;;;5060303;28;20446;-83
2022/06/04 09:32:03;;;;;;;8.20;7.40;;;26.50;56.30;;;;;;5085400;28;20486;-83
2022/06/04 09:34:33;;;;;;;8.60;7.80;;;26.60;56.40;;;;;;5065330;28;20989;-84
2022/06/04 09:37:00;;;;;;;9.20;7.90;;;26.70;56.20;;;;;;5065576;28;20466;-85
2022/06/04 09:39:29;;;;;;;8.63;7.87;;;26.70;56.30;;;;;;5085791;28;20522;-83
2022/06/04 09:41:59;;;;;;;9.63;7.23;;;26.90;55.90;;;;;;5066379;28;20463;-85
2022/06/04 09:44:29;;;;;;;8.50;7.73;;;27.00;55.80;;;;;;5065137;28;20447;-85
2022/06/04 09:47:00;;;;;;;8.90;7.93;;;27.00;55.00;;;;;;5085652;28;21236;-84
2022/06/04 09:49:33;;;;;;;8.07;7.37;;;27.00;54.90;;;;;;5066470;28;20432;-84
2022/06/04 09:52:11;;;;;;;8.37;7.50;;;26.90;55.10;;;;;;5085001;28;20566;-84
2022/06/04 09:54:40;;;;;;;9.13;8.33;;;26.90;55.30;;;;;;5066383;28;21005;-83
2022/06/04 09:57:08;;;;;;;8.10;7.40;;;26.90;54.40;;;;;;5083334;28;20995;-85
2022/06/04 09:59:36;;;;;;;8.30;7.60;;;27.00;54.60;;;;;;5064944;28;20456;-83
2022/06/04 10:02:17;;;;;;;8.03;7.33;;;27.20;54.10;;;;;;5082949;28;20471;-83
2022/06/04 10:04:47;;;;;;;8.00;7.30;;;27.30;54.30;;;;;;5083631;28;20490;-83
2022/06/04 10:07:17;;;;;;;8.57;7.67;;;27.50;53.50;;;;;;5070741;28;20531;-87
2022/06/04 10:09:58;;;;;;;7.60;7.00;;;27.60;53.70;;;;;;5071373;28;20448;-88
2022/06/04 10:15:22;;;;;;;7.80;7.00;;;27.30;53.00;;;;;;5062942;28;20459;-87
2022/06/04 10:18:00;;;;;;;6.90;6.30;;;27.30;53.80;;;;;;5048760;28;20436;-89
2022/06/04 10:20:27;;;;;;;6.20;5.70;;;27.40;53.80;;;;;;5056298;28;21429;-87
2022/06/04 10:22:54;;;;;;;7.67;6.50;;;27.50;53.70;;;;;;5054702;28;20451;-91
2022/06/04 10:25:26;;;;;;;8.23;7.53;;;27.60;53.70;;;;;;5054915;28;20448;-87
2022/06/04 10:28:10;;;;;;;7.00;6.30;;;27.70;54.70;;;;;;5053359;28;20440;-88
2022/06/04 10:30:48;;;;;;;6.87;6.27;;;27.90;54.30;;;;;;5032231;28;20503;-88
2022/06/04 10:33:27;;;;;;;7.97;7.17;;;27.80;52.70;;;;;;5086728;28;20446;-91
2022/06/04 10:36:05;;;;;;;7.57;6.97;;;27.70;53.40;;;;;;5055575;28;20442;-88
2022/06/04 10:38:49;;;;;;;7.30;6.80;;;27.70;53.60;;;;;;5071042;28;20470;-87
2022/06/04 10:41:21;;;;;;;6.87;6.17;;;27.80;53.50;;;;;;5052959;28;20474;-87
2022/06/04 10:44:26;;;;;;;6.87;6.17;;;27.80;52.80;;;;;;5054909;28;20439;-88
2022/06/04 10:47:07;;;;;;;7.03;6.50;;;27.80;53.00;;;;;;5007080;28;20463;-88
2022/06/04 10:50:00;;;;;;;7.03;6.23;;;27.80;53.60;;;;;;5068891;28;20462;-87
2022/06/04 10:52:36;;;;;;;9.60;6.60;;;27.90;53.70;;;;;;5047955;28;20447;-87
2022/06/04 10:55:13;;;;;;;6.67;6.17;;;27.80;53.40;;;;;;5044196;28;20444;-87
2022/06/04 10:58:09;;;;;;;7.40;6.77;;;27.80;53.50;;;;;;5070106;28;20817;-90
2022/06/04 11:00:42;;;;;;;6.90;6.30;;;27.70;53.00;;;;;;5074735;28;20470;-88
2022/06/04 11:03:17;;;;;;;11.03;6.67;;;27.80;53.70;;;;;;5073599;28;20464;-87
2022/06/04 11:05:47;;;;;;;8.73;7.27;;;27.80;53.80;;;;;;5070091;28;20470;-88
2022/06/04 11:08:19;;;;;;;8.10;7.40;;;27.80;53.00;;;;;;5090941;28;20489;-86
2022/06/04 11:10:50;;;;;;;6.30;5.80;;;27.60;53.60;;;;;;5074030;28;20478;-86
2022/06/04 11:13:21;;;;;;;7.43;6.83;;;27.70;54.10;;;;;;5037794;28;20454;-89
2022/06/04 11:15:52;;;;;;;7.10;6.50;;;27.70;54.10;;;;;;5096271;28;20938;-88
2022/06/04 11:18:29;;;;;;;8.07;6.53;;;27.90;53.40;;;;;;5055788;28;20436;-87
2022/06/04 11:21:02;;;;;;;6.63;6.03;;;27.80;52.80;;;;;;5054700;28;20482;-87
2022/06/04 11:23:36;;;;;;;7.00;6.40;;;27.90;52.50;;;;;;5036516;28;20803;-88
2022/06/04 11:26:09;;;;;;;6.93;6.37;;;27.70;53.40;;;;;;5069640;28;20443;-87
2022/06/04 11:28:37;;;;;;;8.50;7.10;;;27.70;53.40;;;;;;5055258;28;20428;-87
2022/06/04 11:31:15;;;;;;;6.70;6.17;;;27.60;53.00;;;;;;5068142;28;21078;-87
2022/06/04 11:34:09;;;;;;;7.93;6.17;;;27.70;53.20;;;;;;5085785;28;20451;-86
2022/06/04 11:36:49;;;;;;;7.90;6.83;;;27.70;53.40;;;;;;5063485;28;20460;-89
2022/06/04 11:39:38;;;;;;;8.57;6.60;;;27.60;52.90;;;;;;5086311;28;20459;-88
2022/06/04 11:42:11;;;;;;;10.40;6.50;;;27.60;53.50;;;;;;5055736;28;20478;-87
2022/06/04 11:45:07;;;;;;;7.40;6.70;;;27.70;53.40;;;;;;5086245;28;20928;-90
2022/06/04 11:47:49;;;;;;;6.80;6.20;;;27.80;53.50;;;;;;5070836;28;20460;-87
2022/06/04 11:50:25;;;;;;;7.23;6.63;;;27.90;53.10;;;;;;5051710;28;20451;-88
2022/06/04 11:53:00;;;;;;;7.00;6.40;;;28.00;52.70;;;;;;5071627;28;20447;-88
2022/06/04 11:55:33;;;;;;;6.50;6.00;;;27.90;52.70;;;;;;5053629;28;20820;-89
2022/06/04 11:58:34;;;;;;;7.67;6.87;;;27.80;53.10;;;;;;5086535;28;21018;-87
2022/06/04 12:01:05;;;;;;;9.00;6.87;;;27.90;52.80;;;;;;5051853;28;20479;-87
2022/06/04 12:03:37;;;;;;;7.13;6.53;;;27.80;53.40;;;;;;5085095;28;20527;-90
2022/06/04 12:06:13;;;;;;;8.53;6.43;;;27.90;52.90;;;;;;5027682;28;20462;-91
2022/06/04 12:08:43;;;;;;;7.00;6.40;;;28.00;53.10;;;;;;5067512;28;20789;-87
2022/06/04 12:11:27;;;;;;;7.47;6.77;;;28.00;52.80;;;;;;5086840;28;20470;-87
2022/06/04 12:14:07;;;;;;;6.90;6.20;;;28.10;52.30;;;;;;5067778;28;20442;-87
2022/06/04 12:16:41;;;;;;;6.70;6.10;;;28.10;51.80;;;;;;5047018;28;20467;-87
2022/06/04 12:25:11;;;;;;;7.23;6.63;;;28.20;51.70;;;;;;5022140;28;20473;-87
2022/06/04 12:27:55;;;;;;;6.80;6.30;;;28.30;51.70;;;;;;5067479;28;20440;-86
2022/06/04 12:30:40;;;;;;;6.10;5.60;;;28.30;51.50;;;;;;5085054;28;20475;-87
2022/06/04 12:33:18;;;;;;;6.83;6.23;;;28.30;50.80;;;;;;5051805;28;20449;-87
2022/06/04 12:35:55;;;;;;;8.10;7.20;;;28.10;51.30;;;;;;5056363;28;20447;-87
2022/06/04 12:38:24;;;;;;;6.77;6.27;;;28.20;51.80;;;;;;5067057;28;20446;-87
2022/06/04 12:40:52;;;;;;;7.10;6.50;;;28.30;50.80;;;;;;5051824;28;20479;-88
2022/06/04 12:43:30;;;;;;;7.83;7.07;;;28.30;51.30;;;;;;5048744;28;20451;-87
2022/06/04 12:46:13;;;;;;;6.70;6.20;;;28.70;51.20;;;;;;5050505;28;20797;-90
2022/06/04 12:48:54;;;;;;;7.13;6.47;;;28.60;50.10;;;;;;5064259;28;21027;-91
2022/06/04 12:51:36;;;;;;;6.73;6.13;;;28.60;50.80;;;;;;5068167;28;20477;-89
2022/06/04 12:54:08;;;;;;;7.30;6.70;;;28.90;50.30;;;;;;5050255;28;20455;-88
2022/06/04 12:56:39;;;;;;;7.67;6.97;;;29.10;50.00;;;;;;5067430;28;20444;-89
2022/06/04 12:59:24;;;;;;;6.60;6.00;;;29.40;49.20;;;;;;5083714;28;20506;-89
2022/06/04 13:01:51;;;;;;;7.20;6.60;;;29.50;47.90;;;;;;5082720;28;21291;-86
2022/06/04 13:04:25;;;;;;;7.00;6.30;;;29.50;48.10;;;;;;5047857;28;20471;-87
2022/06/04 13:06:57;;;;;;;6.90;6.30;;;29.50;48.20;;;;;;5051051;28;20459;-85
2022/06/04 13:09:49;;;;;;;8.57;7.67;;;29.60;49.00;;;;;;5065780;28;20539;-87
2022/06/04 13:12:26;;;;;;;8.50;7.27;;;29.70;48.50;;;;;;5063875;28;20475;-86
2022/06/04 13:14:56;;;;;;;6.90;6.30;;;29.70;48.20;;;;;;5085508;28;20471;-87
2022/06/04 13:17:34;;;;;;;7.27;6.73;;;29.60;48.00;;;;;;5087114;28;20444;-86
2022/06/04 13:20:28;;;;;;;6.37;5.97;;;29.70;48.30;;;;;;5085621;28;20562;-87
2022/06/04 13:22:58;;;;;;;8.43;6.60;;;29.70;47.20;;;;;;5065352;28;20445;-90
2022/06/04 13:25:30;;;;;;;6.70;5.90;;;29.50;47.70;;;;;;5052086;28;20470;-86
2022/06/04 13:27:58;;;;;;;5.93;5.43;;;29.20;48.30;;;;;;5067218;28;20962;-88
2022/06/04 13:30:27;;;;;;;6.93;6.20;;;28.90;48.40;;;;;;5084678;28;21013;-88
2022/06/04 13:33:06;;;;;;;6.93;6.43;;;28.90;48.90;;;;;;5084179;28;20459;-86
2022/06/04 13:35:34;;;;;;;7.17;6.47;;;29.20;49.50;;;;;;5049672;28;20470;-86
2022/06/04 13:38:03;;;;;;;7.53;6.83;;;29.40;49.10;;;;;;5066606;28;20451;-86
2022/06/04 13:40:33;;;;;;;8.00;6.20;;;29.40;47.70;;;;;;5051961;28;20522;-86
2022/06/04 13:43:01;;;;;;;7.00;6.40;;;29.30;48.00;;;;;;5084112;28;21254;-88
2022/06/04 13:45:31;;;;;;;6.43;5.93;;;29.20;48.50;;;;;;5034587;28;21140;-87
2022/06/04 13:48:00;;;;;;;6.77;6.17;;;29.30;48.70;;;;;;5085625;28;20837;-85
2022/06/04 13:50:29;;;;;;;6.70;5.70;;;29.50;48.90;;;;;;5071999;28;20517;-86